Flight Track Log - Related Links

Times and Time Zones

All times are in EDT time to prevent confusion due to time zone crossing. See the FLG4012 flight status page for this flight to view local times or setup timezone preferences in your user account.

Time Position Orientation Groundspeed Altitude Reporting Facility
EDT Latitude Longitude Course Direction KTS MPH feet Rate Location/Type
Thu 09:49:28 PM 44.8833 -93.2667 250° West 163 188 2,500  Level Minneapolis TRACON
Thu 09:50:58 PM 44.8544 -93.3758 250° West 246 283 4,900 1,974 Climbing Minneapolis Center
Thu 09:52:00 PM 44.7800 -93.3578 170° South 279 321 7,500 2,516 Climbing Minneapolis Center
Thu 09:53:02 PM 44.7108 -93.3022 150° Southeast 292 336 10,100 2,244 Climbing Minneapolis Center
Thu 09:54:03 PM 44.6222 -93.2297 150° Southeast 322 371 12,100 1,805 Climbing Minneapolis Center
Thu 09:55:05 PM 44.5364 -93.1614 150° Southeast 356 410 13,800 1,597 Climbing Minneapolis Center
Thu 09:56:07 PM 44.4472 -93.0889 150° Southeast 370 426 15,400 1,561 Climbing Minneapolis Center
Thu 09:57:08 PM 44.3553 -93.0147 150° Southeast 379 436 17,000 1,512 Climbing Minneapolis Center
Thu 09:58:10 PM 44.2608 -92.9397 150° Southeast 388 447 18,500 1,500 Climbing Minneapolis Center
Thu 09:59:12 PM 44.1667 -92.8642 150° Southeast 388 447 20,100 1,355 Climbing Minneapolis Center
Thu 10:00:14 PM 44.0481 -92.7775 152° Southeast 399 459 21,300 1,073 Climbing Minneapolis Center
Thu 10:01:15 PM 43.9453 -92.7078 154° Southeast 407 468 22,300 976 Climbing Minneapolis Center
Thu 10:02:17 PM 43.8406 -92.6375 154° Southeast 414 476 23,300 878 Climbing Minneapolis Center
Thu 10:03:18 PM 43.7375 -92.5892 161° South 419 482 24,100 796 Climbing Minneapolis Center
Thu 10:04:10 PM 43.6197 -92.5719 174° South 420 483 24,800 690 Climbing Chicago Center
Thu 10:05:11 PM 43.5008 -92.5522 173° South 429 494 25,400 634 Climbing Chicago Center
Thu 10:06:13 PM 43.3811 -92.5331 173° South 432 497 26,100 677 Climbing Chicago Center
Thu 10:07:15 PM 43.2603 -92.5128 173° South 438 504 26,800 683 Climbing Chicago Center
Thu 10:08:16 PM 43.1400 -92.4928 173° South 438 504 27,500 780 Climbing Chicago Center
Thu 10:09:18 PM 42.9950 -92.4708 174° South 439 505 28,400 683 Climbing Chicago Center
Thu 10:10:19 PM 42.8744 -92.4503 173° South 441 507 28,900 293 Climbing Chicago Center
Thu 10:11:21 PM 42.7650 -92.3714 152° Southeast 472 543 29,000 49 Climbing Chicago Center
Thu 10:12:22 PM 42.6725 -92.2475 135° Southeast 475 547 29,000  Level Chicago Center
Thu 10:13:24 PM 42.5786 -92.1217 135° Southeast 482 555 29,000  Level Chicago Center
Thu 10:14:25 PM 42.4644 -91.9703 136° Southeast 484 557 29,000  Level Chicago Center
Thu 10:15:27 PM 42.3681 -91.8447 136° Southeast 488 562 29,000  Level Chicago Center
Thu 10:16:28 PM 42.2722 -91.7194 136° Southeast 489 563 29,000  Level Chicago Center
Thu 10:17:30 PM 42.1775 -91.5956 136° Southeast 486 559 29,000  Level Chicago Center
Thu 10:18:31 PM 42.0842 -91.4742 136° Southeast 477 549 29,000  Level Chicago Center
Thu 10:19:33 PM 41.9708 -91.3283 136° Southeast 476 548 29,000 -146 Level Chicago Center
Thu 10:20:34 PM 41.8750 -91.2067 137° Southeast 477 549 28,700 -1,426 Descending Chicago Center
Thu 10:21:35 PM 41.7800 -91.0842 136° Southeast 480 552 26,100 -2,488 Descending Chicago Center
Thu 10:22:37 PM 41.6908 -90.9694 136° Southeast 453 521 23,600 -2,195 Descending Chicago Center
Thu 10:23:38 PM 41.6056 -90.8625 137° Southeast 433 498 21,600 -1,951 Descending Chicago Center
Thu 10:24:40 PM 41.5222 -90.7567 136° Southeast 421 484 19,600 -1,854 Descending Chicago Center
Thu 10:25:41 PM 41.4439 -90.6583 137° Southeast 392 451 17,800 -1,707 Descending Chicago Center
Thu 10:26:43 PM 41.3542 -90.5481 137° Southeast 370 426 16,100 -1,561 Descending Chicago Center
Thu 10:27:44 PM 41.2819 -90.4564 136° Southeast 360 414 14,600 -1,426 Descending Chicago Center
Thu 10:28:45 PM 41.2111 -90.3661 136° Southeast 355 409 13,200 -1,317 Descending Chicago Center
Thu 10:29:47 PM 41.1408 -90.2797 137° Southeast 350 403 11,900 -1,073 Descending Chicago Center
Thu 10:30:48 PM 41.0761 -90.2006 137° Southeast 321 369 11,000 -439 Descending Chicago Center
Thu 10:31:50 PM 41.0133 -90.1228 137° Southeast 314 361 11,000 -585 Level Chicago Center
Thu 10:32:51 PM 40.9631 -90.0353 127° Southeast 297 342 9,800 -1,328 Descending Chicago Center
Thu 10:33:52 PM 40.9156 -89.9503 126° Southeast 291 335 8,300 -1,512 Descending Chicago Center
Thu 10:34:54 PM 40.8708 -89.8683 126° Southeast 276 318 6,700 -1,610 Descending Chicago Center
Thu 10:35:55 PM 40.8292 -89.7894 125° Southeast 263 303 5,000 -1,805 Descending Chicago Center
Thu 10:36:57 PM 40.7875 -89.7139 126° Southeast 254 292 3,000 -1,268 Descending Chicago Center
Thu 10:37:58 PM 40.7497 -89.6439 125° Southeast 238 274 2,400 -295 Descending Chicago Center
Thu 10:38:59 PM 40.7106 -89.5778 128° Southeast 197 227 2,400 -49 Level Chicago Center
Thu 10:40:01 PM 40.6583 -89.5700 174° South 190 219 2,300 -293 Descending Chicago Center
Thu 10:41:02 PM 40.6247 -89.6078 220° Southwest 168 193 1,800 -585 Descending Chicago Center
Thu 10:42:04 PM 40.6414 -89.6550 295° West 153 176 1,100 -585 Descending Chicago Center
Thu 10:43:05 PM 40.6650 -89.7003 305° West 145 167 600 -492 Descending Chicago Center
Thu 10:45:00 PM 40.6642 -89.6933 90° East  Level Estimated
Thu 10:52:00 PM 40.6642 -89.6933 90° East  Level Estimated
Thu 10:53:00 PM 40.6642 -89.6933 90° East  Level Estimated
Thu 10:54:00 PM 40.6642 -89.6933 90° East  Level Estimated
Thu 10:55:00 PM 40.6642 -89.6933 90° East  Level Estimated
Thu 10:56:00 PM 40.6642 -89.6933 90° East  Level Estimated
Thu 10:57:00 PM 40.6642 -89.6933 90° East  Level Estimated
Thu 10:58:00 PM 40.6642 -89.6933 90° East  Level Estimated
Thu 10:59:00 PM 40.6642 -89.6933 90° East  Level Estimated

Login

Don't have an account? Register now (free) for customized features, flight alerts, and more!